Time;durP1;ratioP1;P1;durP2;ratioP2;P2;SDS_P1;SDS_P2;PMS_P1;PMS_P2;Temp;Humidity;BMP_temperature;BMP_pressure;BME280_temperature;BME280_humidity;BME280_pressure;Samples;Min_cycle;Max_cycle;Signal;HPM_P1;HPM_P2
2024/02/14 00:01:32;;;;;;;168.70;93.10;;;;;;;0.61;85.08;99351.23;226553;1274;22796;-82
2024/02/14 00:06:37;;;;;;;158.00;85.60;;;;;;;0.69;85.24;99349.45;226641;1274;22539;-83
2024/02/14 00:11:40;;;;;;;157.30;84.30;;;;;;;0.75;85.42;99346.23;226707;1275;22555;-81
2024/02/14 00:16:43;;;;;;;168.30;91.90;;;;;;;0.80;85.45;99344.98;226665;1275;24297;-82
2024/02/14 00:21:45;;;;;;;158.60;86.90;;;;;;;0.86;85.29;99352.70;226541;1275;22561;-81
2024/02/14 00:26:52;;;;;;;158.20;84.80;;;;;;;0.92;85.38;99351.75;226511;1275;22575;-79
2024/02/14 00:31:55;;;;;;;153.90;84.80;;;;;;;0.98;85.46;99357.17;226697;1275;22592;-82
2024/02/14 00:36:57;;;;;;;160.50;90.30;;;;;;;1.05;85.54;99357.15;226662;1275;22575;-82
2024/02/14 00:42:00;;;;;;;161.20;85.90;;;;;;;1.13;85.49;99351.23;226677;1275;22635;-83
2024/02/14 00:47:03;;;;;;;157.80;85.90;;;;;;;1.20;85.54;99357.29;226530;1275;22607;-81
2024/02/14 00:52:06;;;;;;;160.20;87.80;;;;;;;1.26;85.48;99354.77;226767;1271;22559;-82
2024/02/14 00:57:08;;;;;;;158.20;88.30;;;;;;;1.34;85.43;99357.80;226816;1272;22573;-82
2024/02/14 01:02:11;;;;;;;153.50;87.00;;;;;;;1.38;85.23;99353.44;226468;1275;24255;-82
2024/02/14 01:07:13;;;;;;;153.80;82.80;;;;;;;1.41;85.30;99348.23;226566;1275;22541;-81
2024/02/14 01:12:16;;;;;;;149.10;78.30;;;;;;;1.45;85.57;99338.52;226729;1271;22544;-81
2024/02/14 01:17:18;;;;;;;129.10;69.00;;;;;;;1.49;85.49;99335.83;226639;1275;25290;-83
2024/02/14 01:22:21;;;;;;;116.70;61.70;;;;;;;1.50;85.51;99332.73;226645;1275;22625;-82
2024/02/14 01:27:24;;;;;;;120.30;64.00;;;;;;;1.50;85.23;99326.35;226705;1273;22547;-82
2024/02/14 01:32:29;;;;;;;126.70;66.20;;;;;;;1.50;85.30;99323.25;226560;1275;23033;-83
2024/02/14 01:37:32;;;;;;;120.50;63.70;;;;;;;1.48;85.28;99322.17;226524;1275;22565;-83
2024/02/14 01:42:34;;;;;;;133.10;69.20;;;;;;;1.46;85.39;99328.09;226675;1275;22575;-80
2024/02/14 01:47:36;;;;;;;120.80;65.80;;;;;;;1.43;85.48;99330.04;226711;1275;22675;-83
2024/02/14 01:52:40;;;;;;;131.50;70.10;;;;;;;1.39;85.42;99325.45;226671;1275;22594;-83
2024/02/14 01:57:42;;;;;;;141.50;75.80;;;;;;;1.35;85.32;99325.61;226599;1275;22550;-82
2024/02/14 02:02:46;;;;;;;130.30;70.50;;;;;;;1.28;85.58;99323.33;226527;1275;22721;-81
2024/02/14 02:07:54;;;;;;;136.70;74.00;;;;;;;1.20;85.50;99323.84;226516;1275;22580;-82
2024/02/14 02:13:02;;;;;;;147.40;75.80;;;;;;;1.09;85.30;99326.36;226610;1274;22548;-82
2024/02/14 02:18:06;;;;;;;139.60;74.90;;;;;;;0.99;85.56;99332.52;226676;1275;22580;-83
2024/02/14 02:23:14;;;;;;;138.00;76.10;;;;;;;0.89;85.46;99332.88;226646;1275;26474;-82
2024/02/14 02:28:17;;;;;;;142.00;79.10;;;;;;;0.82;85.37;99336.39;226833;1273;22560;-83
2024/02/14 02:33:19;;;;;;;145.50;79.90;;;;;;;0.76;85.56;99341.81;226599;1275;24289;-81
2024/02/14 02:38:21;;;;;;;138.30;77.20;;;;;;;0.72;85.63;99340.09;226627;1275;22563;-84
2024/02/14 02:43:28;;;;;;;139.20;78.10;;;;;;;0.64;85.60;99339.23;226744;1275;22645;-83
2024/02/14 02:48:31;;;;;;;140.10;78.90;;;;;;;0.56;85.46;99345.17;226685;1275;22721;-81
2024/02/14 02:53:35;;;;;;;135.60;74.20;;;;;;;0.48;85.53;99349.23;226576;1275;22601;-82
2024/02/14 02:58:38;;;;;;;144.10;76.20;;;;;;;0.39;85.66;99346.96;226765;1275;22573;-81
2024/02/14 03:03:41;;;;;;;135.00;74.50;;;;;;;0.30;85.78;99353.97;226557;1274;22551;-82
2024/02/14 03:08:43;;;;;;;131.30;72.70;;;;;;;0.23;85.75;99358.64;226739;1275;22606;-82
2024/02/14 03:13:45;;;;;;;133.30;73.80;;;;;;;0.16;85.75;99360.03;226644;1273;22544;-81
2024/02/14 03:18:47;;;;;;;132.30;72.30;;;;;;;0.09;85.92;99362.44;226715;1275;23624;-82
2024/02/14 03:23:50;;;;;;;133.50;72.50;;;;;;;0.02;85.99;99363.78;226693;1275;22543;-83
2024/02/14 03:28:53;;;;;;;134.70;71.90;;;;;;;-0.06;85.70;99366.25;226831;1273;23029;-82
2024/02/14 03:33:55;;;;;;;130.40;73.20;;;;;;;-0.13;86.02;99375.20;226693;1275;24234;-82
2024/02/14 03:38:59;;;;;;;133.30;72.10;;;;;;;-0.19;85.92;99376.84;226657;1275;22554;-83
2024/02/14 03:44:03;;;;;;;127.50;74.00;;;;;;;-0.24;86.29;99380.35;226869;1272;24257;-80
2024/02/14 03:49:05;;;;;;;142.30;77.40;;;;;;;-0.29;86.43;99383.45;226639;1274;22555;-82
2024/02/14 03:54:07;;;;;;;140.60;80.30;;;;;;;-0.33;86.54;99383.20;226700;1274;22550;-83
2024/02/14 03:59:11;;;;;;;151.60;88.20;;;;;;;-0.36;86.57;99390.79;226733;1265;22545;-82
2024/02/14 04:04:13;;;;;;;148.20;88.20;;;;;;;-0.37;86.95;99384.14;226613;1275;24638;-83
2024/02/14 04:09:15;;;;;;;162.90;98.10;;;;;;;-0.40;86.75;99388.47;226638;1275;22577;-83
2024/02/14 04:14:17;;;;;;;169.80;97.50;;;;;;;-0.42;86.77;99394.54;226615;1275;22713;-83
2024/02/14 04:19:18;;;;;;;155.70;92.80;;;;;;;-0.46;86.82;99398.27;226471;1275;22574;-83
2024/02/14 04:24:21;;;;;;;159.90;95.00;;;;;;;-0.49;86.90;99396.02;226915;1273;22570;-82
2024/02/14 04:29:23;;;;;;;162.90;95.40;;;;;;;-0.52;87.10;99399.69;226612;1275;22806;-82
2024/02/14 04:34:26;;;;;;;155.70;93.20;;;;;;;-0.54;87.18;99404.66;226674;1272;22560;-84
2024/02/14 04:39:28;;;;;;;156.00;89.60;;;;;;;-0.56;87.02;99401.20;226650;1275;22737;-81
2024/02/14 04:44:31;;;;;;;140.30;83.40;;;;;;;-0.58;87.32;99399.27;226701;1274;22547;-81
2024/02/14 04:49:33;;;;;;;144.00;81.00;;;;;;;-0.60;87.21;99401.84;226700;1273;22546;-81
2024/02/14 04:54:35;;;;;;;137.30;78.20;;;;;;;-0.61;87.08;99404.67;226737;1275;22570;-83
2024/02/14 04:59:37;;;;;;;128.10;76.70;;;;;;;-0.60;87.46;99398.23;226662;1275;22714;-82
2024/02/14 05:04:40;;;;;;;126.60;74.80;;;;;;;-0.60;87.49;99393.70;226630;1275;22553;-81
2024/02/14 05:09:44;;;;;;;128.40;79.70;;;;;;;-0.62;87.48;99394.17;226874;1270;22550;-81
2024/02/14 05:14:47;;;;;;;128.70;77.70;;;;;;;-0.64;87.64;99396.04;226658;1275;26272;-81
2024/02/14 05:19:50;;;;;;;123.00;71.70;;;;;;;-0.66;87.66;99396.02;226624;1274;22544;-82
2024/02/14 05:24:52;;;;;;;122.10;70.70;;;;;;;-0.69;87.19;99393.94;226668;1275;22573;-82
2024/02/14 05:29:54;;;;;;;114.50;65.00;;;;;;;-0.70;87.41;99389.35;226698;1273;25371;-83
2024/02/14 05:34:57;;;;;;;111.10;63.90;;;;;;;-0.71;87.80;99394.24;226655;1275;25427;-82
2024/02/14 05:39:59;;;;;;;113.20;64.20;;;;;;;-0.72;87.90;99395.65;226490;1273;22540;-82
2024/02/14 05:45:03;;;;;;;103.20;61.40;;;;;;;-0.69;88.04;99397.21;226692;1270;22583;-83
2024/02/14 05:50:08;;;;;;;103.00;61.50;;;;;;;-0.68;87.93;99399.03;226824;1275;24203;-82
2024/02/14 05:55:11;;;;;;;103.40;60.70;;;;;;;-0.67;88.11;99401.60;226594;1273;22844;-80
2024/02/14 06:00:13;;;;;;;106.20;65.70;;;;;;;-0.67;88.12;99402.48;226684;1274;22590;-83
2024/02/14 06:05:16;;;;;;;111.10;66.70;;;;;;;-0.68;88.06;99402.34;226709;1274;25298;-84
2024/02/14 06:10:19;;;;;;;108.10;66.00;;;;;;;-0.67;87.96;99410.59;226729;1275;22573;-83
2024/02/14 06:15:21;;;;;;;114.70;67.70;;;;;;;-0.66;88.19;99416.57;226922;1272;22551;-82
2024/02/14 06:20:23;;;;;;;114.70;70.80;;;;;;;-0.63;88.49;99418.45;226710;1275;22616;-82
2024/02/14 06:25:26;;;;;;;118.80;70.60;;;;;;;-0.59;88.32;99420.09;226702;1275;22662;-83
2024/02/14 06:30:28;;;;;;;109.30;66.20;;;;;;;-0.52;88.53;99418.07;226657;1275;22568;-83
2024/02/14 06:35:34;;;;;;;108.20;66.60;;;;;;;-0.43;88.62;99423.51;226650;1275;22543;-81
2024/02/14 06:40:37;;;;;;;117.90;71.80;;;;;;;-0.35;88.27;99425.39;226670;1274;22570;-82
2024/02/14 06:45:39;;;;;;;107.50;65.70;;;;;;;-0.26;88.41;99426.00;226673;1275;22558;-81
2024/02/14 06:50:41;;;;;;;103.60;65.70;;;;;;;-0.17;88.84;99424.00;226737;1260;22727;-82
2024/02/14 06:55:43;;;;;;;99.00;60.30;;;;;;;-0.05;88.68;99422.64;226482;1253;22590;-83
2024/02/14 07:00:47;;;;;;;95.00;58.20;;;;;;;0.09;88.71;99424.99;226545;1267;22613;-81
2024/02/14 07:05:51;;;;;;;89.30;55.10;;;;;;;0.21;88.74;99420.79;226247;1260;22571;-82
2024/02/14 07:10:55;;;;;;;88.40;54.40;;;;;;;0.37;88.86;99423.98;226424;1267;22549;-83
2024/02/14 07:15:56;;;;;;;85.60;53.70;;;;;;;0.55;89.06;99427.42;226119;1254;22555;-82
2024/02/14 07:20:59;;;;;;;73.40;45.40;;;;;;;0.70;88.87;99425.81;226126;1272;22569;-81
2024/02/14 07:26:03;;;;;;;67.50;43.50;;;;;;;1.03;89.43;99425.98;226134;1264;22553;-80
2024/02/14 07:31:05;;;;;;;68.10;41.40;;;;;;;1.34;88.94;99422.13;226424;1252;25348;-82
2024/02/14 07:36:08;;;;;;;69.10;42.10;;;;;;;1.46;88.33;99419.05;226164;1267;23157;-82
2024/02/14 07:41:11;;;;;;;69.10;41.30;;;;;;;1.54;88.16;99417.56;226100;1267;22575;-80
2024/02/14 07:46:20;;;;;;;64.50;40.90;;;;;;;1.63;87.99;99423.27;226005;1267;22543;-81
2024/02/14 07:51:22;;;;;;;62.40;40.30;;;;;;;1.78;88.15;99420.72;226241;1252;23056;-81
2024/02/14 07:56:24;;;;;;;60.90;38.30;;;;;;;1.94;88.04;99420.77;226372;1270;22551;-83
2024/02/14 08:01:26;;;;;;;55.40;37.40;;;;;;;2.08;88.02;99427.10;226730;1253;22550;-82
2024/02/14 08:06:28;;;;;;;62.10;38.90;;;;;;;2.23;87.95;99429.91;226552;1253;22547;-82
2024/02/14 08:11:30;;;;;;;61.90;37.40;;;;;;;2.37;87.80;99432.48;226811;1267;22549;-81
2024/02/14 08:16:32;;;;;;;53.00;34.70;;;;;;;2.51;87.67;99433.48;226586;1274;22577;-82
2024/02/14 08:21:34;;;;;;;52.10;34.10;;;;;;;2.67;87.73;99435.65;226542;1268;22561;-83
2024/02/14 08:26:36;;;;;;;52.40;33.00;;;;;;;2.88;87.81;99438.85;226762;1270;22555;-81
2024/02/14 08:31:38;;;;;;;54.80;33.30;;;;;;;3.11;88.03;99442.52;226506;1262;22559;-83
2024/02/14 08:36:41;;;;;;;42.00;27.30;;;;;;;3.36;87.77;99444.17;226569;1267;22576;-80
2024/02/14 08:41:44;;;;;;;37.50;24.70;;;;;;;3.58;87.60;99436.41;226482;1271;22540;-78
2024/02/14 08:46:49;;;;;;;39.20;23.50;;;;;;;3.80;87.41;99429.64;226755;1267;22589;-81
2024/02/14 08:51:51;;;;;;;34.60;23.50;;;;;;;4.04;87.23;99421.68;226471;1271;24239;-81
2024/02/14 08:56:55;;;;;;;32.70;21.00;;;;;;;4.28;87.13;99418.08;226466;1267;22543;-78
2024/02/14 09:01:58;;;;;;;29.60;19.00;;;;;;;4.53;87.04;99421.12;226631;1274;22571;-81
2024/02/14 09:07:00;;;;;;;28.40;17.80;;;;;;;4.74;86.47;99420.30;226611;1270;22570;-82
2024/02/14 09:12:02;;;;;;;25.50;17.50;;;;;;;4.96;85.94;99423.59;226689;1255;22556;-81
2024/02/14 09:17:04;;;;;;;26.60;16.00;;;;;;;5.17;85.70;99425.01;226635;1260;22546;-81
2024/02/14 09:22:06;;;;;;;24.40;16.60;;;;;;;5.37;85.15;99423.89;226452;1274;197050;-78
2024/02/14 09:27:09;;;;;;;26.60;15.60;;;;;;;5.54;85.24;99420.73;226452;1265;25279;-80
2024/02/14 09:32:13;;;;;;;19.60;13.30;;;;;;;5.74;85.33;99423.10;226521;1274;22543;-80
2024/02/14 09:37:16;;;;;;;21.30;11.90;;;;;;;5.93;84.12;99421.52;226399;1275;22692;-79
2024/02/14 09:42:27;;;;;;;15.20;9.70;;;;;;;6.11;83.73;99419.30;226574;1273;22549;-78
2024/02/14 09:47:32;;;;;;;14.90;9.90;;;;;;;6.34;83.06;99415.92;226751;1252;22637;-80
2024/02/14 09:52:36;;;;;;;12.90;8.50;;;;;;;6.54;82.19;99410.84;226380;1252;22554;-80
2024/02/14 09:57:42;;;;;;;14.20;9.50;;;;;;;6.68;81.57;99405.77;226325;1255;22941;-82
2024/02/14 10:02:44;;;;;;;13.40;9.10;;;;;;;6.90;80.91;99407.55;226209;1271;22570;-81
2024/02/14 10:07:46;;;;;;;9.90;7.20;;;;;;;7.12;80.88;99411.08;226275;1271;22576;-81
2024/02/14 10:12:49;;;;;;;11.90;7.20;;;;;;;7.25;79.33;99404.54;226438;1254;22546;-81
2024/02/14 10:17:51;;;;;;;9.10;6.60;;;;;;;7.33;79.09;99396.61;226333;1268;22638;-80
2024/02/14 10:23:01;;;;;;;9.40;6.70;;;;;;;7.48;79.12;99391.60;226446;1273;22566;-84
2024/02/14 10:28:10;;;;;;;10.70;7.10;;;;;;;7.65;78.01;99388.16;226417;1269;23681;-82
2024/02/14 10:33:15;;;;;;;8.80;5.90;;;;;;;7.79;77.43;99377.37;226601;1271;22560;-82
2024/02/14 10:38:34;;;;;;;10.10;7.00;;;;;;;7.96;77.01;99372.73;226610;1271;22543;-83
2024/02/14 10:43:38;;;;;;;11.90;5.90;;;;;;;8.10;76.44;99372.14;226085;1259;24777;-80
2024/02/14 10:48:41;;;;;;;10.80;5.70;;;;;;;8.27;76.04;99365.58;226243;1262;23019;-80
2024/02/14 10:53:46;;;;;;;11.20;5.60;;;;;;;8.41;75.34;99362.10;226506;1268;22680;-80
2024/02/14 10:58:52;;;;;;;8.30;5.10;;;;;;;8.56;75.23;99355.39;226150;1273;22505;-79
2024/02/14 11:03:57;;;;;;;9.00;5.40;;;;;;;8.70;74.59;99357.43;225973;1257;22662;-80
2024/02/14 11:09:07;;;;;;;8.40;4.70;;;;;;;8.76;74.18;99355.04;226154;1273;22532;-80
2024/02/14 11:14:12;;;;;;;8.00;4.80;;;;;;;8.94;73.59;99363.04;226387;1270;22988;-80
2024/02/14 11:19:19;;;;;;;8.90;5.80;;;;;;;8.91;71.65;99354.37;226318;1268;24261;-80
2024/02/14 11:24:28;;;;;;;7.60;5.00;;;;;;;8.89;71.61;99347.52;226413;1271;22550;-79
2024/02/14 11:29:31;;;;;;;8.10;5.20;;;;;;;8.98;72.14;99337.90;226322;1264;22569;-80
2024/02/14 11:34:33;;;;;;;7.70;4.90;;;;;;;9.10;71.85;99329.08;226356;1255;22558;-80
2024/02/14 11:39:39;;;;;;;6.20;4.30;;;;;;;9.19;70.87;99324.20;226381;1252;22914;-75
2024/02/14 11:44:42;;;;;;;8.30;5.60;;;;;;;9.13;70.28;99317.27;226197;1262;22543;-79
2024/02/14 11:49:46;;;;;;;9.50;5.40;;;;;;;9.06;70.45;99310.16;226158;1271;23192;-80
2024/02/14 11:54:50;;;;;;;8.80;4.90;;;;;;;9.10;70.74;99303.90;226491;1267;22550;-80
2024/02/14 11:59:53;;;;;;;6.10;4.00;;;;;;;9.04;69.56;99302.89;226440;1267;22543;-81
2024/02/14 12:04:56;;;;;;;6.20;4.40;;;;;;;8.92;69.23;99299.02;226297;1271;22546;-75
2024/02/14 12:09:59;;;;;;;8.00;4.80;;;;;;;8.95;69.83;99298.56;226491;1267;22687;-81
2024/02/14 12:15:01;;;;;;;7.10;5.40;;;;;;;9.02;69.97;99298.34;226246;1271;22619;-81
2024/02/14 12:20:11;;;;;;;6.30;4.40;;;;;;;9.01;69.47;99295.94;226027;1262;22551;-77
2024/02/14 12:25:13;;;;;;;7.30;4.60;;;;;;;8.94;68.62;99292.02;226244;1274;22763;-76
2024/02/14 12:30:19;;;;;;;7.50;4.90;;;;;;;8.87;68.68;99285.55;226459;1255;22612;-77
2024/02/14 12:35:23;;;;;;;6.80;5.20;;;;;;;8.88;68.62;99283.36;226431;1268;22534;-82
2024/02/14 12:40:25;;;;;;;8.40;5.40;;;;;;;8.96;69.08;99283.15;226169;1253;22549;-78
2024/02/14 12:45:27;;;;;;;7.90;5.20;;;;;;;9.02;68.69;99279.14;226270;1267;22533;-78
2024/02/14 12:50:30;;;;;;;8.00;5.80;;;;;;;9.08;68.38;99282.39;226245;1267;22576;-76
2024/02/14 12:55:32;;;;;;;8.50;5.30;;;;;;;9.06;68.53;99280.77;226163;1252;22546;-77
2024/02/14 13:00:35;;;;;;;9.20;6.40;;;;;;;9.14;68.76;99272.93;226169;1259;22540;-80
2024/02/14 13:05:38;;;;;;;7.00;4.60;;;;;;;9.15;68.66;99271.59;226065;1263;22551;-81
2024/02/14 13:10:39;;;;;;;10.70;5.30;;;;;;;9.16;67.55;99272.73;226251;1252;22559;-81
2024/02/14 13:15:44;;;;;;;9.70;5.30;;;;;;;9.17;68.07;99271.75;226131;1252;23248;-83
2024/02/14 13:20:46;;;;;;;9.40;5.40;;;;;;;9.17;67.77;99267.11;226317;1257;22611;-81
2024/02/14 13:25:48;;;;;;;6.40;5.30;;;;;;;9.16;67.86;99260.91;226353;1264;23018;-82
2024/02/14 13:30:50;;;;;;;8.40;4.90;;;;;;;9.22;68.43;99260.50;226508;1267;22547;-81
2024/02/14 13:35:57;;;;;;;8.10;5.00;;;;;;;9.25;68.15;99260.29;226407;1256;22574;-82
2024/02/14 13:40:59;;;;;;;6.30;4.40;;;;;;;9.27;68.58;99259.06;226483;1255;24359;-78
2024/02/14 13:46:02;;;;;;;6.50;4.40;;;;;;;9.27;68.33;99258.38;226512;1261;22542;-80
2024/02/14 13:51:04;;;;;;;8.30;5.20;;;;;;;9.24;67.71;99258.67;226346;1255;22693;-78
2024/02/14 13:56:06;;;;;;;6.30;5.10;;;;;;;9.18;68.03;99254.61;226393;1267;22529;-78
2024/02/14 14:01:08;;;;;;;8.80;5.20;;;;;;;9.14;68.19;99252.04;226373;1257;22540;-79
2024/02/14 14:06:11;;;;;;;7.80;5.30;;;;;;;9.12;68.43;99248.71;226315;1268;22554;-83
2024/02/14 14:11:13;;;;;;;7.00;4.80;;;;;;;9.12;68.43;99251.28;226492;1259;23229;-81
2024/02/14 14:16:15;;;;;;;8.60;6.00;;;;;;;9.09;68.71;99254.11;226377;1256;22876;-85
2024/02/14 14:21:17;;;;;;;17.20;8.60;;;;;;;9.04;68.72;99253.63;226466;1255;22569;-83
2024/02/14 14:26:19;;;;;;;9.50;6.70;;;;;;;8.98;69.03;99250.11;226175;1255;22619;-83
2024/02/14 14:31:22;;;;;;;11.80;7.40;;;;;;;8.90;69.29;99253.38;226268;1260;22588;-80
2024/02/14 14:36:24;;;;;;;11.50;6.10;;;;;;;8.84;69.49;99252.69;226232;1253;24350;-77
2024/02/14 14:41:26;;;;;;;7.80;5.40;;;;;;;8.82;69.90;99251.96;226496;1268;22586;-73
2024/02/14 14:46:30;;;;;;;7.80;6.00;;;;;;;8.81;69.92;99247.84;226401;1255;22542;-79
2024/02/14 14:51:33;;;;;;;13.20;7.60;;;;;;;8.85;69.99;99243.44;226364;1262;22992;-81
2024/02/14 14:56:35;;;;;;;10.80;6.90;;;;;;;8.81;69.78;99241.52;226543;1263;22549;-80
2024/02/14 15:01:38;;;;;;;10.50;6.50;;;;;;;8.77;70.10;99239.86;226432;1274;22542;-81
2024/02/14 15:06:41;;;;;;;11.30;7.30;;;;;;;8.71;70.35;99235.64;226267;1273;22622;-81
2024/02/14 15:11:43;;;;;;;10.20;6.50;;;;;;;8.60;70.47;99233.55;226066;1258;22575;-81
2024/02/14 15:16:45;;;;;;;11.80;6.60;;;;;;;8.42;70.55;99238.87;226375;1274;22569;-80
2024/02/14 15:21:47;;;;;;;9.40;6.50;;;;;;;8.19;70.53;99233.77;226172;1266;22552;-79
2024/02/14 15:26:49;;;;;;;10.60;6.50;;;;;;;8.01;71.15;99232.05;226567;1271;22536;-81
2024/02/14 15:37:13;;;;;;;9.20;6.60;;;;;;;7.73;71.21;99233.15;226713;1271;22741;-80
2024/02/14 15:42:14;;;;;;;10.50;6.50;;;;;;;7.63;71.56;99226.46;226642;1274;22535;-80
2024/02/14 15:47:17;;;;;;;10.80;6.20;;;;;;;7.55;71.82;99227.16;226710;1274;22588;-81
2024/02/14 15:52:20;;;;;;;12.10;8.40;;;;;;;7.48;71.63;99229.28;226694;1274;22579;-80
2024/02/14 15:57:22;;;;;;;13.90;7.40;;;;;;;7.42;72.42;99234.48;226508;1274;22645;-80
2024/02/14 16:02:24;;;;;;;15.00;8.10;;;;;;;7.38;72.32;99238.77;226675;1272;22539;-80
2024/02/14 16:07:27;;;;;;;15.70;8.90;;;;;;;7.34;72.77;99243.15;226669;1274;24258;-80
2024/02/14 16:12:29;;;;;;;17.40;8.80;;;;;;;7.28;72.29;99251.89;226699;1274;22533;-81
2024/02/14 16:17:32;;;;;;;15.90;9.80;;;;;;;7.21;72.71;99255.55;226627;1274;22546;-81
2024/02/14 16:22:35;;;;;;;16.10;9.90;;;;;;;7.16;72.85;99256.79;226639;1274;25508;-81
2024/02/14 16:27:39;;;;;;;14.20;10.10;;;;;;;7.13;73.06;99258.48;226698;1275;23028;-81
2024/02/14 16:32:41;;;;;;;20.70;10.70;;;;;;;7.11;72.97;99256.58;226775;1273;22553;-80
2024/02/14 16:37:43;;;;;;;20.40;10.40;;;;;;;7.06;73.18;99259.83;226694;1271;22546;-79
2024/02/14 16:42:44;;;;;;;15.90;10.50;;;;;;;7.03;73.47;99260.70;226741;1272;22602;-80
2024/02/14 16:47:46;;;;;;;20.80;9.60;;;;;;;6.98;73.77;99263.08;226539;1274;22655;-81
2024/02/14 16:52:49;;;;;;;16.80;10.30;;;;;;;6.96;74.07;99264.16;226697;1275;22575;-79
2024/02/14 16:57:54;;;;;;;16.00;9.70;;;;;;;6.96;74.18;99263.87;226552;1275;22545;-81
2024/02/14 17:02:56;;;;;;;22.40;11.80;;;;;;;6.95;74.24;99268.33;226588;1264;22589;-82
2024/02/14 17:08:09;;;;;;;24.70;13.30;;;;;;;6.94;74.37;99264.10;226653;1275;22485;-80
2024/02/14 17:13:14;;;;;;;33.30;13.40;;;;;;;6.91;74.50;99267.11;226528;1275;22543;-81
2024/02/14 17:18:17;;;;;;;21.60;12.30;;;;;;;6.88;74.18;99271.96;226531;1274;22542;-81
2024/02/14 17:23:19;;;;;;;23.70;13.40;;;;;;;6.83;74.48;99270.91;226738;1275;22568;-80
2024/02/14 17:28:21;;;;;;;26.40;14.30;;;;;;;6.77;74.41;99272.44;226694;1273;22569;-80
2024/02/14 17:33:23;;;;;;;25.90;14.80;;;;;;;6.70;74.37;99270.27;226656;1274;22546;-81
2024/02/14 17:38:25;;;;;;;27.40;16.00;;;;;;;6.65;74.49;99274.09;226671;1274;22555;-81
2024/02/14 17:43:28;;;;;;;31.20;15.30;;;;;;;6.60;74.77;99277.41;226663;1275;22583;-80
2024/02/14 17:48:31;;;;;;;28.60;15.40;;;;;;;6.54;74.88;99274.46;226705;1274;22550;-81
2024/02/14 17:53:34;;;;;;;24.40;14.10;;;;;;;6.50;74.97;99274.93;226479;1275;22597;-80
2024/02/14 17:58:36;;;;;;;30.30;15.20;;;;;;;6.46;75.13;99276.14;226481;1274;22550;-81
2024/02/14 18:03:38;;;;;;;25.80;14.10;;;;;;;6.43;75.37;99280.16;226549;1275;22540;-80
2024/02/14 18:08:40;;;;;;;25.40;14.70;;;;;;;6.41;75.23;99273.20;226689;1271;22563;-81
2024/02/14 18:13:42;;;;;;;23.80;15.50;;;;;;;6.39;75.35;99277.56;226698;1275;22543;-80
2024/02/14 18:18:45;;;;;;;23.20;14.60;;;;;;;6.40;75.86;99276.91;226765;1272;22567;-81
2024/02/14 18:23:49;;;;;;;22.90;14.20;;;;;;;6.43;75.60;99277.90;226614;1275;22520;-81
2024/02/14 18:28:53;;;;;;;22.00;13.20;;;;;;;6.45;76.12;99277.33;226609;1275;22553;-81
2024/02/14 18:33:55;;;;;;;25.20;14.30;;;;;;;6.47;75.44;99284.80;226640;1275;22570;-81
2024/02/14 18:38:57;;;;;;;22.80;14.20;;;;;;;6.51;75.80;99289.70;226502;1274;25303;-80
2024/02/14 18:44:03;;;;;;;21.20;13.70;;;;;;;6.55;76.20;99283.85;226672;1271;22545;-80
2024/02/14 18:49:05;;;;;;;20.00;13.00;;;;;;;6.58;75.85;99283.39;226692;1271;22550;-81
2024/02/14 18:54:07;;;;;;;20.30;12.10;;;;;;;6.60;75.99;99282.63;226710;1271;22547;-80
2024/02/14 18:59:09;;;;;;;18.70;10.50;;;;;;;6.64;75.76;99279.13;226746;1271;22571;-81
2024/02/14 19:04:12;;;;;;;15.50;10.20;;;;;;;6.67;75.57;99284.04;226717;1274;22554;-80
2024/02/14 19:09:14;;;;;;;15.70;10.20;;;;;;;6.71;75.65;99288.76;226825;1271;22551;-80
2024/02/14 19:14:16;;;;;;;17.10;9.40;;;;;;;6.72;75.08;99293.14;226482;1274;22546;-81
2024/02/14 19:19:19;;;;;;;15.80;9.80;;;;;;;6.73;75.41;99293.44;226465;1274;22542;-80
2024/02/14 19:24:23;;;;;;;15.30;8.90;;;;;;;6.75;75.42;99295.23;226724;1271;25360;-81
2024/02/14 19:29:26;;;;;;;17.40;10.20;;;;;;;6.77;75.46;99293.64;226697;1274;22567;-80
2024/02/14 19:34:28;;;;;;;17.90;10.00;;;;;;;6.78;75.48;99295.77;226650;1274;25268;-80
2024/02/14 19:39:32;;;;;;;15.30;8.70;;;;;;;6.81;75.71;99299.00;226606;1272;22564;-81
2024/02/14 19:44:34;;;;;;;16.60;10.50;;;;;;;6.82;75.44;99299.73;226511;1267;22569;-81
2024/02/14 19:49:35;;;;;;;17.10;10.50;;;;;;;6.83;75.22;99300.17;226771;1271;24165;-82
2024/02/14 19:54:38;;;;;;;18.90;11.20;;;;;;;6.83;75.48;99300.14;226726;1274;22657;-81
2024/02/14 19:59:40;;;;;;;16.40;9.90;;;;;;;6.82;75.96;99289.74;226551;1274;22562;-81
2024/02/14 20:04:43;;;;;;;18.00;9.90;;;;;;;6.81;75.83;99290.05;226592;1274;22561;-80
2024/02/14 20:09:46;;;;;;;17.00;11.00;;;;;;;6.82;75.93;99290.45;226695;1273;22554;-81
2024/02/14 20:14:48;;;;;;;17.90;10.10;;;;;;;6.83;75.44;99288.45;226492;1274;22543;-81
2024/02/14 20:19:51;;;;;;;16.50;10.50;;;;;;;6.83;75.51;99292.48;226547;1274;22551;-82
2024/02/14 20:24:53;;;;;;;17.40;9.60;;;;;;;6.83;75.63;99285.48;226781;1258;22538;-81
2024/02/14 20:29:56;;;;;;;16.60;10.00;;;;;;;6.82;75.50;99284.86;226644;1275;22550;-80
2024/02/14 20:34:59;;;;;;;16.60;10.60;;;;;;;6.83;76.01;99292.34;226706;1275;22550;-81
2024/02/14 20:40:01;;;;;;;18.10;9.70;;;;;;;6.83;76.12;99287.38;226548;1275;24216;-82
2024/02/14 20:45:04;;;;;;;17.40;10.20;;;;;;;6.82;76.07;99286.59;226748;1272;22554;-81
2024/02/14 20:50:07;;;;;;;18.50;10.60;;;;;;;6.83;75.81;99290.55;226483;1275;22535;-81
2024/02/14 20:55:09;;;;;;;17.90;10.80;;;;;;;6.82;75.69;99288.54;226722;1273;24398;-81
2024/02/14 21:00:16;;;;;;;17.40;10.30;;;;;;;6.83;75.99;99286.33;226701;1274;22675;-81
2024/02/14 21:05:19;;;;;;;18.30;10.90;;;;;;;6.83;76.25;99285.48;226549;1275;22547;-81
2024/02/14 21:10:22;;;;;;;17.60;10.40;;;;;;;6.83;76.17;99287.90;226675;1273;22564;-81
2024/02/14 21:15:24;;;;;;;17.80;10.20;;;;;;;6.84;76.32;99285.16;226820;1275;22545;-81
2024/02/14 21:20:30;;;;;;;20.40;10.80;;;;;;;6.87;76.35;99288.34;226577;1272;206530;-81
2024/02/14 21:25:35;;;;;;;17.90;10.50;;;;;;;6.90;76.22;99287.27;226789;1273;22604;-81
2024/02/14 21:30:38;;;;;;;19.20;11.10;;;;;;;6.89;76.60;99286.45;226581;1275;22730;-81
2024/02/14 21:35:41;;;;;;;17.70;10.60;;;;;;;6.90;76.41;99290.02;226646;1275;22546;-80
2024/02/14 21:40:43;;;;;;;19.00;11.20;;;;;;;6.92;76.71;99287.59;226642;1275;22553;-81
2024/02/14 21:45:45;;;;;;;18.70;11.20;;;;;;;6.94;76.24;99288.08;226744;1273;22546;-81
2024/02/14 21:50:48;;;;;;;20.00;11.90;;;;;;;6.95;76.80;99288.65;226656;1274;22542;-81
2024/02/14 21:55:50;;;;;;;19.90;11.60;;;;;;;6.96;76.66;99297.69;226806;1272;22604;-80
2024/02/14 22:00:53;;;;;;;16.40;11.00;;;;;;;6.96;77.11;99297.10;226522;1275;22537;-80
2024/02/14 22:05:57;;;;;;;22.00;11.60;;;;;;;6.97;76.51;99304.41;226581;1275;22586;-81
2024/02/14 22:11:00;;;;;;;20.20;12.30;;;;;;;6.99;77.12;99306.84;226686;1275;22538;-80
2024/02/14 22:16:03;;;;;;;23.40;13.90;;;;;;;6.99;76.95;99305.34;226733;1275;22544;-80
2024/02/14 22:21:05;;;;;;;22.50;14.00;;;;;;;6.98;77.38;99310.34;226603;1274;22547;-80
2024/02/14 22:26:09;;;;;;;25.40;13.00;;;;;;;6.98;77.26;99310.90;226552;1275;22559;-80
2024/02/14 22:31:11;;;;;;;22.30;13.80;;;;;;;6.97;77.01;99305.98;226548;1274;24203;-81
2024/02/14 22:36:14;;;;;;;21.70;13.50;;;;;;;6.94;77.04;99300.10;226594;1275;22583;-81
2024/02/14 22:41:18;;;;;;;20.60;13.10;;;;;;;6.93;77.45;99301.27;226700;1270;22546;-81
2024/02/14 22:46:20;;;;;;;19.90;12.80;;;;;;;6.91;77.22;99301.98;226600;1267;25419;-81
2024/02/14 22:51:23;;;;;;;20.90;12.00;;;;;;;6.91;77.60;99299.61;226673;1274;22564;-81
2024/02/14 22:56:26;;;;;;;21.20;12.60;;;;;;;6.90;77.63;99301.02;226546;1274;22554;-80
2024/02/14 23:01:27;;;;;;;21.00;12.50;;;;;;;6.88;77.53;99301.94;226627;1274;23021;-80
2024/02/14 23:06:30;;;;;;;18.60;12.00;;;;;;;6.88;77.59;99301.45;226622;1274;22622;-80
2024/02/14 23:11:42;;;;;;;25.90;14.80;;;;;;;6.87;77.78;99296.61;226767;1264;26064;-80
2024/02/14 23:16:44;;;;;;;28.80;16.20;;;;;;;6.89;77.80;99294.50;226675;1274;23509;-81